sensor_id;sensor_type;location;lat;lon;timestamp;temperature;humidity
19292;DHT22;9779;51.756;7.450;2024-01-30T00:01:15;5.60;1.00
19292;DHT22;9779;51.756;7.450;2024-01-30T00:03:41;5.60;1.00
19292;DHT22;9779;51.756;7.450;2024-01-30T00:06:07;5.60;1.00
19292;DHT22;9779;51.756;7.450;2024-01-30T00:08:33;5.60;1.00
19292;DHT22;9779;51.756;7.450;2024-01-30T00:10:59;5.60;1.00
19292;DHT22;9779;51.756;7.450;2024-01-30T00:13:24;5.50;1.00
19292;DHT22;9779;51.756;7.450;2024-01-30T00:15:50;5.50;1.00
19292;DHT22;9779;51.756;7.450;2024-01-30T00:18:15;5.40;1.00
19292;DHT22;9779;51.756;7.450;2024-01-30T00:20:41;5.60;1.00
19292;DHT22;9779;51.756;7.450;2024-01-30T00:23:08;5.40;1.00
19292;DHT22;9779;51.756;7.450;2024-01-30T00:25:34;5.50;1.00
19292;DHT22;9779;51.756;7.450;2024-01-30T00:28:00;5.40;1.00
19292;DHT22;9779;51.756;7.450;2024-01-30T00:30:25;5.30;1.00
19292;DHT22;9779;51.756;7.450;2024-01-30T00:32:51;5.40;1.00
19292;DHT22;9779;51.756;7.450;2024-01-30T00:47:40;5.30;1.00
19292;DHT22;9779;51.756;7.450;2024-01-30T00:50:06;5.20;1.00
19292;DHT22;9779;51.756;7.450;2024-01-30T00:52:31;5.30;1.00
19292;DHT22;9779;51.756;7.450;2024-01-30T00:54:58;5.20;1.00
19292;DHT22;9779;51.756;7.450;2024-01-30T00:57:24;5.20;1.00
19292;DHT22;9779;51.756;7.450;2024-01-30T00:59:49;5.20;1.00
19292;DHT22;9779;51.756;7.450;2024-01-30T01:02:15;5.10;1.00
19292;DHT22;9779;51.756;7.450;2024-01-30T01:04:43;5.10;1.00
19292;DHT22;9779;51.756;7.450;2024-01-30T01:07:09;5.10;1.00
19292;DHT22;9779;51.756;7.450;2024-01-30T01:09:35;5.10;1.00
19292;DHT22;9779;51.756;7.450;2024-01-30T01:12:01;5.00;1.00
19292;DHT22;9779;51.756;7.450;2024-01-30T01:14:27;5.00;1.00
19292;DHT22;9779;51.756;7.450;2024-01-30T01:16:53;5.10;1.00
19292;DHT22;9779;51.756;7.450;2024-01-30T01:19:18;5.00;1.00
19292;DHT22;9779;51.756;7.450;2024-01-30T01:21:44;5.00;1.00
19292;DHT22;9779;51.756;7.450;2024-01-30T01:24:10;5.00;1.00
19292;DHT22;9779;51.756;7.450;2024-01-30T01:26:35;5.10;1.00
19292;DHT22;9779;51.756;7.450;2024-01-30T01:29:01;5.10;1.00
19292;DHT22;9779;51.756;7.450;2024-01-30T01:31:26;5.00;1.00
19292;DHT22;9779;51.756;7.450;2024-01-30T01:33:55;4.90;1.00
19292;DHT22;9779;51.756;7.450;2024-01-30T01:36:21;4.90;1.00
19292;DHT22;9779;51.756;7.450;2024-01-30T01:38:46;5.00;1.00
19292;DHT22;9779;51.756;7.450;2024-01-30T01:41:12;5.10;1.00
19292;DHT22;9779;51.756;7.450;2024-01-30T01:43:37;5.00;1.00
19292;DHT22;9779;51.756;7.450;2024-01-30T01:46:05;4.90;1.00
19292;DHT22;9779;51.756;7.450;2024-01-30T01:48:31;5.00;1.00
19292;DHT22;9779;51.756;7.450;2024-01-30T01:50:57;4.90;1.00
19292;DHT22;9779;51.756;7.450;2024-01-30T01:53:23;4.90;1.00
19292;DHT22;9779;51.756;7.450;2024-01-30T01:55:49;4.90;1.00
19292;DHT22;9779;51.756;7.450;2024-01-30T01:58:15;4.90;1.00
19292;DHT22;9779;51.756;7.450;2024-01-30T02:00:42;4.90;1.00
19292;DHT22;9779;51.756;7.450;2024-01-30T02:03:10;4.80;1.00
19292;DHT22;9779;51.756;7.450;2024-01-30T02:05:37;4.80;1.00
19292;DHT22;9779;51.756;7.450;2024-01-30T02:08:03;4.90;1.00
19292;DHT22;9779;51.756;7.450;2024-01-30T02:10:29;4.90;1.00
19292;DHT22;9779;51.756;7.450;2024-01-30T02:12:55;4.90;1.00
19292;DHT22;9779;51.756;7.450;2024-01-30T02:15:20;4.90;1.00
19292;DHT22;9779;51.756;7.450;2024-01-30T02:17:46;4.50;1.00
19292;DHT22;9779;51.756;7.450;2024-01-30T02:20:11;4.90;1.00
19292;DHT22;9779;51.756;7.450;2024-01-30T02:22:38;4.80;1.00
19292;DHT22;9779;51.756;7.450;2024-01-30T02:25:05;4.90;1.00
19292;DHT22;9779;51.756;7.450;2024-01-30T02:27:31;4.80;1.00
19292;DHT22;9779;51.756;7.450;2024-01-30T02:29:56;4.80;1.00
19292;DHT22;9779;51.756;7.450;2024-01-30T02:32:22;4.90;1.00
19292;DHT22;9779;51.756;7.450;2024-01-30T02:34:47;4.80;1.00
19292;DHT22;9779;51.756;7.450;2024-01-30T02:37:13;4.70;1.00
19292;DHT22;9779;51.756;7.450;2024-01-30T02:39:39;4.90;1.00
19292;DHT22;9779;51.756;7.450;2024-01-30T02:42:04;4.90;1.00
19292;DHT22;9779;51.756;7.450;2024-01-30T02:44:30;4.70;1.00
19292;DHT22;9779;51.756;7.450;2024-01-30T02:46:56;4.70;1.00
19292;DHT22;9779;51.756;7.450;2024-01-30T02:49:22;4.80;11.50
19292;DHT22;9779;51.756;7.450;2024-01-30T02:51:47;4.80;79.30
19292;DHT22;9779;51.756;7.450;2024-01-30T02:54:13;4.50;79.40
19292;DHT22;9779;51.756;7.450;2024-01-30T02:56:39;4.80;29.70
19292;DHT22;9779;51.756;7.450;2024-01-30T02:59:05;4.60;66.50
19292;DHT22;9779;51.756;7.450;2024-01-30T03:01:30;4.70;18.20
19292;DHT22;9779;51.756;7.450;2024-01-30T03:03:57;4.80;26.70
19292;DHT22;9779;51.756;7.450;2024-01-30T03:06:22;4.90;1.00
19292;DHT22;9779;51.756;7.450;2024-01-30T03:08:48;4.20;1.00
19292;DHT22;9779;51.756;7.450;2024-01-30T03:11:14;4.90;12.50
19292;DHT22;9779;51.756;7.450;2024-01-30T03:13:39;4.70;19.10
19292;DHT22;9779;51.756;7.450;2024-01-30T03:16:06;4.70;1.00
19292;DHT22;9779;51.756;7.450;2024-01-30T03:18:31;4.70;1.00
19292;DHT22;9779;51.756;7.450;2024-01-30T03:20:57;4.60;25.20
19292;DHT22;9779;51.756;7.450;2024-01-30T03:23:22;4.70;71.90
19292;DHT22;9779;51.756;7.450;2024-01-30T03:25:48;4.70;40.00
19292;DHT22;9779;51.756;7.450;2024-01-30T03:28:14;4.70;31.70
19292;DHT22;9779;51.756;7.450;2024-01-30T03:30:39;4.60;45.30
19292;DHT22;9779;51.756;7.450;2024-01-30T03:33:05;4.60;15.90
19292;DHT22;9779;51.756;7.450;2024-01-30T03:35:30;4.70;25.70
19292;DHT22;9779;51.756;7.450;2024-01-30T03:37:56;4.70;77.30
19292;DHT22;9779;51.756;7.450;2024-01-30T03:40:21;4.70;99.90
19292;DHT22;9779;51.756;7.450;2024-01-30T03:42:47;4.70;99.90
19292;DHT22;9779;51.756;7.450;2024-01-30T03:45:12;4.70;99.90
19292;DHT22;9779;51.756;7.450;2024-01-30T03:47:38;4.60;99.90
19292;DHT22;9779;51.756;7.450;2024-01-30T03:50:04;4.70;99.90
19292;DHT22;9779;51.756;7.450;2024-01-30T03:52:30;4.70;99.90
19292;DHT22;9779;51.756;7.450;2024-01-30T03:54:55;4.80;99.90
19292;DHT22;9779;51.756;7.450;2024-01-30T03:57:21;4.80;99.90
19292;DHT22;9779;51.756;7.450;2024-01-30T03:59:47;4.90;99.90
19292;DHT22;9779;51.756;7.450;2024-01-30T04:02:13;4.90;99.90
19292;DHT22;9779;51.756;7.450;2024-01-30T04:04:38;4.90;99.90
19292;DHT22;9779;51.756;7.450;2024-01-30T04:07:04;4.90;99.90
19292;DHT22;9779;51.756;7.450;2024-01-30T04:09:29;4.90;99.90
19292;DHT22;9779;51.756;7.450;2024-01-30T04:11:55;4.90;99.90
19292;DHT22;9779;51.756;7.450;2024-01-30T04:14:21;4.90;99.90
19292;DHT22;9779;51.756;7.450;2024-01-30T04:16:47;4.90;99.90
19292;DHT22;9779;51.756;7.450;2024-01-30T04:19:12;4.90;99.90
19292;DHT22;9779;51.756;7.450;2024-01-30T04:21:38;5.00;99.90
19292;DHT22;9779;51.756;7.450;2024-01-30T04:24:04;5.00;99.90
19292;DHT22;9779;51.756;7.450;2024-01-30T04:26:29;4.90;99.90
19292;DHT22;9779;51.756;7.450;2024-01-30T04:28:55;5.00;99.90
19292;DHT22;9779;51.756;7.450;2024-01-30T04:31:21;5.00;99.90
19292;DHT22;9779;51.756;7.450;2024-01-30T04:33:46;5.00;99.90
19292;DHT22;9779;51.756;7.450;2024-01-30T04:36:12;5.00;99.90
19292;DHT22;9779;51.756;7.450;2024-01-30T04:38:38;5.00;99.90
19292;DHT22;9779;51.756;7.450;2024-01-30T04:41:05;5.00;99.90
19292;DHT22;9779;51.756;7.450;2024-01-30T04:43:30;4.90;99.90
19292;DHT22;9779;51.756;7.450;2024-01-30T04:45:56;4.90;99.90
19292;DHT22;9779;51.756;7.450;2024-01-30T04:48:22;4.90;99.90
19292;DHT22;9779;51.756;7.450;2024-01-30T04:50:47;4.90;99.90
19292;DHT22;9779;51.756;7.450;2024-01-30T04:53:13;4.80;99.90
19292;DHT22;9779;51.756;7.450;2024-01-30T04:55:38;4.80;99.90
19292;DHT22;9779;51.756;7.450;2024-01-30T04:58:04;4.80;99.90
19292;DHT22;9779;51.756;7.450;2024-01-30T05:00:29;4.80;99.90
19292;DHT22;9779;51.756;7.450;2024-01-30T05:02:55;4.80;99.90
19292;DHT22;9779;51.756;7.450;2024-01-30T05:05:21;4.80;99.90
19292;DHT22;9779;51.756;7.450;2024-01-30T05:07:47;4.80;99.90
19292;DHT22;9779;51.756;7.450;2024-01-30T05:10:13;4.80;99.90
19292;DHT22;9779;51.756;7.450;2024-01-30T05:12:39;4.70;99.90
19292;DHT22;9779;51.756;7.450;2024-01-30T05:15:05;4.70;99.90
19292;DHT22;9779;51.756;7.450;2024-01-30T05:17:31;4.80;99.90
19292;DHT22;9779;51.756;7.450;2024-01-30T05:19:57;4.80;99.90
19292;DHT22;9779;51.756;7.450;2024-01-30T05:22:23;4.80;99.90
19292;DHT22;9779;51.756;7.450;2024-01-30T05:24:48;4.80;99.90
19292;DHT22;9779;51.756;7.450;2024-01-30T05:27:14;4.80;99.90
19292;DHT22;9779;51.756;7.450;2024-01-30T05:29:40;4.80;99.90
19292;DHT22;9779;51.756;7.450;2024-01-30T05:32:06;4.70;99.90
19292;DHT22;9779;51.756;7.450;2024-01-30T05:34:32;4.80;99.90
19292;DHT22;9779;51.756;7.450;2024-01-30T05:36:58;4.70;99.90
19292;DHT22;9779;51.756;7.450;2024-01-30T05:39:24;4.70;99.90
19292;DHT22;9779;51.756;7.450;2024-01-30T05:41:49;4.70;99.90
19292;DHT22;9779;51.756;7.450;2024-01-30T05:44:15;4.70;99.90
19292;DHT22;9779;51.756;7.450;2024-01-30T05:46:40;4.70;99.90
19292;DHT22;9779;51.756;7.450;2024-01-30T05:49:06;4.70;99.90
19292;DHT22;9779;51.756;7.450;2024-01-30T05:51:32;4.70;99.90
19292;DHT22;9779;51.756;7.450;2024-01-30T05:53:57;4.70;99.90
19292;DHT22;9779;51.756;7.450;2024-01-30T05:56:23;4.70;99.90
19292;DHT22;9779;51.756;7.450;2024-01-30T05:58:49;4.60;99.90
19292;DHT22;9779;51.756;7.450;2024-01-30T06:01:16;4.70;99.90
19292;DHT22;9779;51.756;7.450;2024-01-30T06:03:41;4.70;99.90
19292;DHT22;9779;51.756;7.450;2024-01-30T06:06:08;4.70;99.90
19292;DHT22;9779;51.756;7.450;2024-01-30T06:08:34;4.80;99.90
19292;DHT22;9779;51.756;7.450;2024-01-30T06:11:00;4.80;99.90
19292;DHT22;9779;51.756;7.450;2024-01-30T06:13:26;4.80;99.90
19292;DHT22;9779;51.756;7.450;2024-01-30T06:15:52;4.80;99.90
19292;DHT22;9779;51.756;7.450;2024-01-30T06:18:18;4.90;99.90
19292;DHT22;9779;51.756;7.450;2024-01-30T06:20:43;4.90;99.90
19292;DHT22;9779;51.756;7.450;2024-01-30T06:23:09;4.90;99.90
19292;DHT22;9779;51.756;7.450;2024-01-30T06:25:35;4.90;99.90
19292;DHT22;9779;51.756;7.450;2024-01-30T06:28:01;4.90;99.90
19292;DHT22;9779;51.756;7.450;2024-01-30T06:30:26;4.90;99.90
19292;DHT22;9779;51.756;7.450;2024-01-30T06:32:52;5.00;99.90
19292;DHT22;9779;51.756;7.450;2024-01-30T06:35:18;5.00;99.90
19292;DHT22;9779;51.756;7.450;2024-01-30T06:37:43;5.00;99.90
19292;DHT22;9779;51.756;7.450;2024-01-30T06:40:09;5.00;99.90
19292;DHT22;9779;51.756;7.450;2024-01-30T06:42:35;5.00;99.90
19292;DHT22;9779;51.756;7.450;2024-01-30T06:45:00;5.00;99.90
19292;DHT22;9779;51.756;7.450;2024-01-30T06:47:26;5.10;99.90
19292;DHT22;9779;51.756;7.450;2024-01-30T06:49:52;5.10;99.90
19292;DHT22;9779;51.756;7.450;2024-01-30T06:52:18;5.20;99.90
19292;DHT22;9779;51.756;7.450;2024-01-30T06:54:43;5.10;99.90
19292;DHT22;9779;51.756;7.450;2024-01-30T06:57:09;5.20;99.90
19292;DHT22;9779;51.756;7.450;2024-01-30T06:59:37;5.20;99.90
19292;DHT22;9779;51.756;7.450;2024-01-30T07:02:09;5.30;99.90
19292;DHT22;9779;51.756;7.450;2024-01-30T07:04:34;5.20;99.90
19292;DHT22;9779;51.756;7.450;2024-01-30T07:07:02;5.30;99.90
19292;DHT22;9779;51.756;7.450;2024-01-30T07:09:28;5.30;99.90
19292;DHT22;9779;51.756;7.450;2024-01-30T07:11:54;5.30;99.90
19292;DHT22;9779;51.756;7.450;2024-01-30T07:14:20;5.30;99.90
19292;DHT22;9779;51.756;7.450;2024-01-30T07:16:46;5.30;99.90
19292;DHT22;9779;51.756;7.450;2024-01-30T07:19:12;5.30;99.90
19292;DHT22;9779;51.756;7.450;2024-01-30T07:21:37;5.30;99.90
19292;DHT22;9779;51.756;7.450;2024-01-30T07:24:06;5.40;99.90
19292;DHT22;9779;51.756;7.450;2024-01-30T07:26:31;5.90;99.90
19292;DHT22;9779;51.756;7.450;2024-01-30T07:28:57;6.30;99.90
19292;DHT22;9779;51.756;7.450;2024-01-30T07:31:22;6.20;99.90
19292;DHT22;9779;51.756;7.450;2024-01-30T07:33:48;6.00;99.90
19292;DHT22;9779;51.756;7.450;2024-01-30T07:36:14;5.90;99.90
19292;DHT22;9779;51.756;7.450;2024-01-30T07:38:40;5.80;99.90
19292;DHT22;9779;51.756;7.450;2024-01-30T07:41:06;5.70;99.90
19292;DHT22;9779;51.756;7.450;2024-01-30T07:43:31;5.60;99.90
19292;DHT22;9779;51.756;7.450;2024-01-30T07:45:58;5.60;99.90
19292;DHT22;9779;51.756;7.450;2024-01-30T07:48:26;5.60;99.90
19292;DHT22;9779;51.756;7.450;2024-01-30T07:50:52;5.60;99.90
19292;DHT22;9779;51.756;7.450;2024-01-30T07:53:18;5.60;99.90
19292;DHT22;9779;51.756;7.450;2024-01-30T07:55:44;5.60;99.90
19292;DHT22;9779;51.756;7.450;2024-01-30T07:58:12;5.60;99.90
19292;DHT22;9779;51.756;7.450;2024-01-30T08:00:38;5.70;99.90
19292;DHT22;9779;51.756;7.450;2024-01-30T08:03:04;5.70;99.90
19292;DHT22;9779;51.756;7.450;2024-01-30T08:05:30;5.70;99.90
19292;DHT22;9779;51.756;7.450;2024-01-30T08:07:55;5.80;99.90
19292;DHT22;9779;51.756;7.450;2024-01-30T08:10:21;5.80;99.90
19292;DHT22;9779;51.756;7.450;2024-01-30T08:12:47;5.90;99.90
19292;DHT22;9779;51.756;7.450;2024-01-30T08:15:12;6.00;99.90
19292;DHT22;9779;51.756;7.450;2024-01-30T08:17:38;6.00;99.90
19292;DHT22;9779;51.756;7.450;2024-01-30T08:20:05;6.10;99.90
19292;DHT22;9779;51.756;7.450;2024-01-30T08:22:31;6.10;99.90
19292;DHT22;9779;51.756;7.450;2024-01-30T08:24:56;6.10;99.90
19292;DHT22;9779;51.756;7.450;2024-01-30T08:27:22;6.20;99.90
19292;DHT22;9779;51.756;7.450;2024-01-30T08:29:47;6.20;99.90
19292;DHT22;9779;51.756;7.450;2024-01-30T08:32:13;6.30;99.90
19292;DHT22;9779;51.756;7.450;2024-01-30T08:34:39;6.30;99.90
19292;DHT22;9779;51.756;7.450;2024-01-30T08:37:04;6.40;99.90
19292;DHT22;9779;51.756;7.450;2024-01-30T08:39:30;6.40;99.90
19292;DHT22;9779;51.756;7.450;2024-01-30T08:41:56;6.40;99.90
19292;DHT22;9779;51.756;7.450;2024-01-30T08:44:21;6.40;99.90
19292;DHT22;9779;51.756;7.450;2024-01-30T08:46:47;6.40;99.90
19292;DHT22;9779;51.756;7.450;2024-01-30T08:49:13;6.40;99.90
19292;DHT22;9779;51.756;7.450;2024-01-30T08:51:41;6.40;99.90
19292;DHT22;9779;51.756;7.450;2024-01-30T08:54:07;6.50;99.90
19292;DHT22;9779;51.756;7.450;2024-01-30T08:56:32;6.50;99.90
19292;DHT22;9779;51.756;7.450;2024-01-30T08:58:58;6.50;99.90
19292;DHT22;9779;51.756;7.450;2024-01-30T09:01:25;6.60;99.90
19292;DHT22;9779;51.756;7.450;2024-01-30T09:03:50;6.60;99.90
19292;DHT22;9779;51.756;7.450;2024-01-30T09:06:19;6.70;99.90
19292;DHT22;9779;51.756;7.450;2024-01-30T09:08:44;6.70;99.90
19292;DHT22;9779;51.756;7.450;2024-01-30T09:11:12;6.70;99.90
19292;DHT22;9779;51.756;7.450;2024-01-30T09:13:38;6.80;99.90
19292;DHT22;9779;51.756;7.450;2024-01-30T09:16:04;6.80;99.90
19292;DHT22;9779;51.756;7.450;2024-01-30T09:18:30;6.80;99.90
19292;DHT22;9779;51.756;7.450;2024-01-30T09:20:56;6.90;99.90
19292;DHT22;9779;51.756;7.450;2024-01-30T09:23:21;6.90;99.90
19292;DHT22;9779;51.756;7.450;2024-01-30T09:25:47;6.90;99.90
19292;DHT22;9779;51.756;7.450;2024-01-30T09:28:13;6.90;99.90
19292;DHT22;9779;51.756;7.450;2024-01-30T09:30:38;7.00;99.90
19292;DHT22;9779;51.756;7.450;2024-01-30T09:33:05;7.00;99.90
19292;DHT22;9779;51.756;7.450;2024-01-30T09:35:30;7.00;99.90
19292;DHT22;9779;51.756;7.450;2024-01-30T09:37:56;7.10;99.90
19292;DHT22;9779;51.756;7.450;2024-01-30T09:40:23;7.20;99.90
19292;DHT22;9779;51.756;7.450;2024-01-30T09:42:50;7.20;99.90
19292;DHT22;9779;51.756;7.450;2024-01-30T09:45:17;7.20;99.90
19292;DHT22;9779;51.756;7.450;2024-01-30T09:47:44;7.30;99.90
19292;DHT22;9779;51.756;7.450;2024-01-30T09:50:12;7.40;99.90
19292;DHT22;9779;51.756;7.450;2024-01-30T09:52:38;7.40;99.90
19292;DHT22;9779;51.756;7.450;2024-01-30T09:55:05;7.50;99.90
19292;DHT22;9779;51.756;7.450;2024-01-30T09:57:31;7.50;99.90
19292;DHT22;9779;51.756;7.450;2024-01-30T09:59:57;7.60;99.90
19292;DHT22;9779;51.756;7.450;2024-01-30T10:02:23;7.60;99.90
19292;DHT22;9779;51.756;7.450;2024-01-30T10:04:49;7.70;99.90
19292;DHT22;9779;51.756;7.450;2024-01-30T10:07:16;7.80;99.90
19292;DHT22;9779;51.756;7.450;2024-01-30T10:09:42;7.80;99.90
19292;DHT22;9779;51.756;7.450;2024-01-30T10:12:09;7.80;99.90
19292;DHT22;9779;51.756;7.450;2024-01-30T10:14:38;7.80;99.90
19292;DHT22;9779;51.756;7.450;2024-01-30T10:17:04;7.90;99.90
19292;DHT22;9779;51.756;7.450;2024-01-30T10:19:31;7.90;99.90
19292;DHT22;9779;51.756;7.450;2024-01-30T10:21:56;8.00;99.90
19292;DHT22;9779;51.756;7.450;2024-01-30T10:24:26;8.00;99.90
19292;DHT22;9779;51.756;7.450;2024-01-30T10:26:53;8.20;99.90
19292;DHT22;9779;51.756;7.450;2024-01-30T10:29:18;8.20;99.90
19292;DHT22;9779;51.756;7.450;2024-01-30T10:31:44;8.30;99.90
19292;DHT22;9779;51.756;7.450;2024-01-30T10:34:10;8.30;99.90
19292;DHT22;9779;51.756;7.450;2024-01-30T10:36:40;8.50;99.90
19292;DHT22;9779;51.756;7.450;2024-01-30T10:39:08;8.50;99.90
19292;DHT22;9779;51.756;7.450;2024-01-30T10:41:43;8.60;99.90
19292;DHT22;9779;51.756;7.450;2024-01-30T10:44:10;8.70;99.90
19292;DHT22;9779;51.756;7.450;2024-01-30T10:46:38;8.80;99.90
19292;DHT22;9779;51.756;7.450;2024-01-30T10:49:04;8.90;99.90
19292;DHT22;9779;51.756;7.450;2024-01-30T10:51:31;9.00;99.90
19292;DHT22;9779;51.756;7.450;2024-01-30T10:53:58;9.10;99.90
19292;DHT22;9779;51.756;7.450;2024-01-30T10:56:24;9.20;99.90
19292;DHT22;9779;51.756;7.450;2024-01-30T10:58:51;9.30;99.90
19292;DHT22;9779;51.756;7.450;2024-01-30T11:01:22;9.50;99.90
19292;DHT22;9779;51.756;7.450;2024-01-30T11:03:52;9.60;99.90
19292;DHT22;9779;51.756;7.450;2024-01-30T11:06:18;9.70;99.90
19292;DHT22;9779;51.756;7.450;2024-01-30T11:08:45;9.90;99.90
19292;DHT22;9779;51.756;7.450;2024-01-30T11:11:10;9.90;99.90
19292;DHT22;9779;51.756;7.450;2024-01-30T11:13:36;10.10;99.90
19292;DHT22;9779;51.756;7.450;2024-01-30T11:16:05;10.20;99.90
19292;DHT22;9779;51.756;7.450;2024-01-30T11:18:33;10.40;99.90
19292;DHT22;9779;51.756;7.450;2024-01-30T11:20:59;10.40;99.90
19292;DHT22;9779;51.756;7.450;2024-01-30T11:23:27;10.50;99.90
19292;DHT22;9779;51.756;7.450;2024-01-30T11:25:53;10.60;99.90
19292;DHT22;9779;51.756;7.450;2024-01-30T11:28:21;10.70;99.90
19292;DHT22;9779;51.756;7.450;2024-01-30T11:30:47;10.90;99.90
19292;DHT22;9779;51.756;7.450;2024-01-30T11:33:27;11.00;99.90
19292;DHT22;9779;51.756;7.450;2024-01-30T11:35:52;11.00;99.90
19292;DHT22;9779;51.756;7.450;2024-01-30T11:38:18;11.10;99.90
19292;DHT22;9779;51.756;7.450;2024-01-30T11:40:44;11.10;99.90
19292;DHT22;9779;51.756;7.450;2024-01-30T11:43:09;11.20;1.00
19292;DHT22;9779;51.756;7.450;2024-01-30T11:45:36;11.30;1.00
19292;DHT22;9779;51.756;7.450;2024-01-30T11:48:02;11.30;1.00
19292;DHT22;9779;51.756;7.450;2024-01-30T11:50:35;11.20;1.00
19292;DHT22;9779;51.756;7.450;2024-01-30T11:53:01;11.30;1.00
19292;DHT22;9779;51.756;7.450;2024-01-30T11:55:29;11.40;1.00
19292;DHT22;9779;51.756;7.450;2024-01-30T11:57:56;11.40;99.90
19292;DHT22;9779;51.756;7.450;2024-01-30T12:00:22;11.40;99.90
19292;DHT22;9779;51.756;7.450;2024-01-30T12:02:52;11.40;1.00
19292;DHT22;9779;51.756;7.450;2024-01-30T12:05:22;11.40;1.00
19292;DHT22;9779;51.756;7.450;2024-01-30T12:07:47;11.40;65.70
19292;DHT22;9779;51.756;7.450;2024-01-30T12:10:14;11.40;99.90
19292;DHT22;9779;51.756;7.450;2024-01-30T12:12:41;11.40;99.90
19292;DHT22;9779;51.756;7.450;2024-01-30T12:15:08;11.30;99.90
19292;DHT22;9779;51.756;7.450;2024-01-30T12:17:34;11.30;99.90
19292;DHT22;9779;51.756;7.450;2024-01-30T12:22:42;11.40;99.90
19292;DHT22;9779;51.756;7.450;2024-01-30T12:25:13;11.30;99.90
19292;DHT22;9779;51.756;7.450;2024-01-30T12:27:40;11.30;99.90
19292;DHT22;9779;51.756;7.450;2024-01-30T12:30:08;11.30;1.00
19292;DHT22;9779;51.756;7.450;2024-01-30T12:32:41;11.40;1.00
19292;DHT22;9779;51.756;7.450;2024-01-30T12:35:12;11.40;1.00
19292;DHT22;9779;51.756;7.450;2024-01-30T12:37:39;11.40;1.00
19292;DHT22;9779;51.756;7.450;2024-01-30T12:40:05;11.40;1.00
19292;DHT22;9779;51.756;7.450;2024-01-30T12:42:35;11.40;1.00
19292;DHT22;9779;51.756;7.450;2024-01-30T12:45:03;11.40;1.00
19292;DHT22;9779;51.756;7.450;2024-01-30T12:47:29;11.30;1.00
19292;DHT22;9779;51.756;7.450;2024-01-30T12:49:55;11.40;1.00
19292;DHT22;9779;51.756;7.450;2024-01-30T12:52:21;11.40;1.00
19292;DHT22;9779;51.756;7.450;2024-01-30T12:54:48;11.40;1.00
19292;DHT22;9779;51.756;7.450;2024-01-30T12:57:14;11.40;1.00
19292;DHT22;9779;51.756;7.450;2024-01-30T12:59:39;11.40;1.00
19292;DHT22;9779;51.756;7.450;2024-01-30T13:02:05;11.30;1.00
19292;DHT22;9779;51.756;7.450;2024-01-30T13:04:32;11.40;1.00
19292;DHT22;9779;51.756;7.450;2024-01-30T13:06:57;11.40;1.00
19292;DHT22;9779;51.756;7.450;2024-01-30T13:09:24;11.50;1.00
19292;DHT22;9779;51.756;7.450;2024-01-30T13:11:50;11.50;1.00
19292;DHT22;9779;51.756;7.450;2024-01-30T13:14:17;11.50;1.00
19292;DHT22;9779;51.756;7.450;2024-01-30T13:16:43;11.50;1.00
19292;DHT22;9779;51.756;7.450;2024-01-30T13:19:08;11.50;1.00
19292;DHT22;9779;51.756;7.450;2024-01-30T13:21:34;11.60;1.00
19292;DHT22;9779;51.756;7.450;2024-01-30T13:24:00;11.60;1.00
19292;DHT22;9779;51.756;7.450;2024-01-30T13:26:25;11.60;1.00
19292;DHT22;9779;51.756;7.450;2024-01-30T13:28:51;11.60;1.00
19292;DHT22;9779;51.756;7.450;2024-01-30T13:31:17;11.60;99.90
19292;DHT22;9779;51.756;7.450;2024-01-30T13:33:43;11.60;99.90
19292;DHT22;9779;51.756;7.450;2024-01-30T13:36:11;11.50;99.90
19292;DHT22;9779;51.756;7.450;2024-01-30T13:38:37;11.50;99.90
19292;DHT22;9779;51.756;7.450;2024-01-30T13:41:03;11.50;99.90
19292;DHT22;9779;51.756;7.450;2024-01-30T13:43:29;11.50;99.90
19292;DHT22;9779;51.756;7.450;2024-01-30T13:45:54;11.50;99.90
19292;DHT22;9779;51.756;7.450;2024-01-30T13:48:20;11.50;1.00
19292;DHT22;9779;51.756;7.450;2024-01-30T13:50:47;11.50;1.00
19292;DHT22;9779;51.756;7.450;2024-01-30T13:53:13;11.40;1.00
19292;DHT22;9779;51.756;7.450;2024-01-30T13:55:38;11.50;1.00
19292;DHT22;9779;51.756;7.450;2024-01-30T13:58:05;11.40;1.00
19292;DHT22;9779;51.756;7.450;2024-01-30T14:00:31;11.40;99.90
19292;DHT22;9779;51.756;7.450;2024-01-30T14:02:57;11.50;1.00
19292;DHT22;9779;51.756;7.450;2024-01-30T14:05:24;11.40;99.90
19292;DHT22;9779;51.756;7.450;2024-01-30T14:07:51;11.40;1.00
19292;DHT22;9779;51.756;7.450;2024-01-30T14:10:17;11.40;1.00
19292;DHT22;9779;51.756;7.450;2024-01-30T14:12:43;11.40;1.00
19292;DHT22;9779;51.756;7.450;2024-01-30T14:15:13;11.40;1.00
19292;DHT22;9779;51.756;7.450;2024-01-30T14:17:40;11.40;1.00
19292;DHT22;9779;51.756;7.450;2024-01-30T14:20:06;11.40;1.00
19292;DHT22;9779;51.756;7.450;2024-01-30T14:22:33;11.30;1.00
19292;DHT22;9779;51.756;7.450;2024-01-30T14:25:00;11.30;1.00
19292;DHT22;9779;51.756;7.450;2024-01-30T14:27:25;11.30;1.00
19292;DHT22;9779;51.756;7.450;2024-01-30T14:29:51;11.30;1.00
19292;DHT22;9779;51.756;7.450;2024-01-30T14:32:17;11.30;1.00
19292;DHT22;9779;51.756;7.450;2024-01-30T14:34:42;11.30;60.90
19292;DHT22;9779;51.756;7.450;2024-01-30T14:37:08;11.20;99.90
19292;DHT22;9779;51.756;7.450;2024-01-30T14:39:34;11.20;99.90
19292;DHT22;9779;51.756;7.450;2024-01-30T14:42:03;11.20;99.90
19292;DHT22;9779;51.756;7.450;2024-01-30T14:44:29;11.30;99.90
19292;DHT22;9779;51.756;7.450;2024-01-30T14:46:55;11.30;75.80
19292;DHT22;9779;51.756;7.450;2024-01-30T14:49:20;11.30;99.90
19292;DHT22;9779;51.756;7.450;2024-01-30T14:51:46;11.30;99.90
19292;DHT22;9779;51.756;7.450;2024-01-30T14:54:12;11.30;99.90
19292;DHT22;9779;51.756;7.450;2024-01-30T14:56:37;11.40;99.90
19292;DHT22;9779;51.756;7.450;2024-01-30T14:59:03;11.40;99.90
19292;DHT22;9779;51.756;7.450;2024-01-30T15:01:29;11.40;99.90
19292;DHT22;9779;51.756;7.450;2024-01-30T15:03:54;11.40;99.90
19292;DHT22;9779;51.756;7.450;2024-01-30T15:06:21;11.40;99.90
19292;DHT22;9779;51.756;7.450;2024-01-30T15:08:50;11.40;99.90
19292;DHT22;9779;51.756;7.450;2024-01-30T15:11:15;11.40;99.90
19292;DHT22;9779;51.756;7.450;2024-01-30T15:13:41;11.30;1.00
19292;DHT22;9779;51.756;7.450;2024-01-30T15:16:07;11.30;1.00
19292;DHT22;9779;51.756;7.450;2024-01-30T15:18:33;11.30;1.00
19292;DHT22;9779;51.756;7.450;2024-01-30T15:20:59;11.30;1.00
19292;DHT22;9779;51.756;7.450;2024-01-30T15:23:24;11.30;1.00
19292;DHT22;9779;51.756;7.450;2024-01-30T15:25:50;11.20;1.00
19292;DHT22;9779;51.756;7.450;2024-01-30T15:28:15;11.20;20.40
19292;DHT22;9779;51.756;7.450;2024-01-30T15:30:42;11.20;99.90
19292;DHT22;9779;51.756;7.450;2024-01-30T15:33:09;11.20;99.90
19292;DHT22;9779;51.756;7.450;2024-01-30T15:35:35;11.10;99.90
19292;DHT22;9779;51.756;7.450;2024-01-30T15:38:00;11.10;1.00
19292;DHT22;9779;51.756;7.450;2024-01-30T15:40:26;11.00;1.00
19292;DHT22;9779;51.756;7.450;2024-01-30T15:42:52;11.00;99.90
19292;DHT22;9779;51.756;7.450;2024-01-30T15:45:17;11.00;99.90
19292;DHT22;9779;51.756;7.450;2024-01-30T15:47:43;11.00;1.00
19292;DHT22;9779;51.756;7.450;2024-01-30T15:50:11;10.90;1.00
19292;DHT22;9779;51.756;7.450;2024-01-30T15:52:36;10.90;7.90
19292;DHT22;9779;51.756;7.450;2024-01-30T15:55:02;10.90;1.00
19292;DHT22;9779;51.756;7.450;2024-01-30T15:57:28;10.80;1.00
19292;DHT22;9779;51.756;7.450;2024-01-30T15:59:53;10.80;99.90
19292;DHT22;9779;51.756;7.450;2024-01-30T16:02:19;10.80;99.90
19292;DHT22;9779;51.756;7.450;2024-01-30T16:04:46;10.80;99.90
19292;DHT22;9779;51.756;7.450;2024-01-30T16:07:12;10.70;99.90
19292;DHT22;9779;51.756;7.450;2024-01-30T16:09:38;10.70;99.90